sensor_id;sensor_type;location;lat;lon;timestamp;P1;durP1;ratioP1;P2;durP2;ratioP2
7745;SDS011;3917;42.748;23.278;2022-08-20T00:01:54;8.93;;;5.80;;
7745;SDS011;3917;42.748;23.278;2022-08-20T00:04:21;6.32;;;5.80;;
7745;SDS011;3917;42.748;23.278;2022-08-20T00:06:48;10.02;;;6.47;;
7745;SDS011;3917;42.748;23.278;2022-08-20T00:09:16;8.88;;;6.32;;
7745;SDS011;3917;42.748;23.278;2022-08-20T00:11:43;11.18;;;6.18;;
7745;SDS011;3917;42.748;23.278;2022-08-20T00:14:10;8.20;;;6.10;;
7745;SDS011;3917;42.748;23.278;2022-08-20T00:16:37;7.60;;;6.38;;
7745;SDS011;3917;42.748;23.278;2022-08-20T00:19:05;11.52;;;6.88;;
7745;SDS011;3917;42.748;23.278;2022-08-20T00:21:33;8.35;;;6.65;;
7745;SDS011;3917;42.748;23.278;2022-08-20T00:24:01;14.48;;;7.03;;
7745;SDS011;3917;42.748;23.278;2022-08-20T00:26:30;11.27;;;6.80;;
7745;SDS011;3917;42.748;23.278;2022-08-20T00:28:57;10.52;;;6.55;;
7745;SDS011;3917;42.748;23.278;2022-08-20T00:31:26;11.00;;;6.43;;
7745;SDS011;3917;42.748;23.278;2022-08-20T00:33:53;13.75;;;6.25;;
7745;SDS011;3917;42.748;23.278;2022-08-20T00:36:20;11.00;;;7.05;;
7745;SDS011;3917;42.748;23.278;2022-08-20T00:38:48;9.27;;;6.60;;
7745;SDS011;3917;42.748;23.278;2022-08-20T00:41:16;8.40;;;6.20;;
7745;SDS011;3917;42.748;23.278;2022-08-20T00:43:48;11.73;;;6.68;;
7745;SDS011;3917;42.748;23.278;2022-08-20T00:46:18;10.95;;;6.43;;
7745;SDS011;3917;42.748;23.278;2022-08-20T00:48:47;7.25;;;6.45;;
7745;SDS011;3917;42.748;23.278;2022-08-20T00:51:20;7.40;;;6.65;;
7745;SDS011;3917;42.748;23.278;2022-08-20T00:53:52;7.47;;;5.95;;
7745;SDS011;3917;42.748;23.278;2022-08-20T00:56:21;17.05;;;6.50;;
7745;SDS011;3917;42.748;23.278;2022-08-20T00:58:50;9.95;;;5.97;;
7745;SDS011;3917;42.748;23.278;2022-08-20T01:01:17;12.25;;;6.13;;
7745;SDS011;3917;42.748;23.278;2022-08-20T01:03:47;9.63;;;6.43;;
7745;SDS011;3917;42.748;23.278;2022-08-20T01:06:14;10.77;;;6.68;;
7745;SDS011;3917;42.748;23.278;2022-08-20T01:08:41;7.07;;;6.47;;
7745;SDS011;3917;42.748;23.278;2022-08-20T01:11:08;8.88;;;6.57;;
7745;SDS011;3917;42.748;23.278;2022-08-20T01:13:37;7.93;;;6.93;;
7745;SDS011;3917;42.748;23.278;2022-08-20T01:16:10;9.55;;;6.70;;
7745;SDS011;3917;42.748;23.278;2022-08-20T01:18:42;6.78;;;6.20;;
7745;SDS011;3917;42.748;23.278;2022-08-20T01:21:12;7.70;;;6.60;;
7745;SDS011;3917;42.748;23.278;2022-08-20T01:23:42;7.60;;;6.60;;
7745;SDS011;3917;42.748;23.278;2022-08-20T01:26:14;11.27;;;6.88;;
7745;SDS011;3917;42.748;23.278;2022-08-20T01:28:45;7.35;;;6.70;;
7745;SDS011;3917;42.748;23.278;2022-08-20T01:31:18;6.95;;;6.10;;
7745;SDS011;3917;42.748;23.278;2022-08-20T01:33:47;7.20;;;6.50;;
7745;SDS011;3917;42.748;23.278;2022-08-20T01:36:16;11.05;;;6.18;;
7745;SDS011;3917;42.748;23.278;2022-08-20T01:38:46;14.20;;;6.30;;
7745;SDS011;3917;42.748;23.278;2022-08-20T01:44:21;6.72;;;5.95;;
7745;SDS011;3917;42.748;23.278;2022-08-20T01:46:49;12.57;;;6.40;;
7745;SDS011;3917;42.748;23.278;2022-08-20T01:49:18;11.40;;;6.22;;
7745;SDS011;3917;42.748;23.278;2022-08-20T01:51:47;7.57;;;6.68;;
7745;SDS011;3917;42.748;23.278;2022-08-20T01:54:15;8.57;;;6.60;;
7745;SDS011;3917;42.748;23.278;2022-08-20T01:56:52;13.55;;;6.57;;
7745;SDS011;3917;42.748;23.278;2022-08-20T01:59:24;11.30;;;7.10;;
7745;SDS011;3917;42.748;23.278;2022-08-20T02:01:51;8.63;;;7.47;;
7745;SDS011;3917;42.748;23.278;2022-08-20T02:04:18;15.02;;;6.80;;
7745;SDS011;3917;42.748;23.278;2022-08-20T02:06:56;9.90;;;7.32;;
7745;SDS011;3917;42.748;23.278;2022-08-20T02:09:25;8.68;;;6.80;;
7745;SDS011;3917;42.748;23.278;2022-08-20T02:11:56;11.18;;;6.47;;
7745;SDS011;3917;42.748;23.278;2022-08-20T02:14:26;8.57;;;5.85;;
7745;SDS011;3917;42.748;23.278;2022-08-20T02:16:53;10.95;;;6.65;;
7745;SDS011;3917;42.748;23.278;2022-08-20T02:19:23;7.28;;;6.13;;
7745;SDS011;3917;42.748;23.278;2022-08-20T02:21:55;9.82;;;6.57;;
7745;SDS011;3917;42.748;23.278;2022-08-20T02:24:25;9.90;;;6.63;;
7745;SDS011;3917;42.748;23.278;2022-08-20T02:26:52;9.65;;;6.72;;
7745;SDS011;3917;42.748;23.278;2022-08-20T02:29:19;11.77;;;7.13;;
7745;SDS011;3917;42.748;23.278;2022-08-20T02:31:52;10.98;;;6.75;;
7745;SDS011;3917;42.748;23.278;2022-08-20T02:34:19;11.05;;;6.43;;
7745;SDS011;3917;42.748;23.278;2022-08-20T02:36:46;13.80;;;7.03;;
7745;SDS011;3917;42.748;23.278;2022-08-20T02:39:14;9.02;;;6.93;;
7745;SDS011;3917;42.748;23.278;2022-08-20T02:41:41;13.20;;;7.03;;
7745;SDS011;3917;42.748;23.278;2022-08-20T02:44:08;17.80;;;7.43;;
7745;SDS011;3917;42.748;23.278;2022-08-20T02:46:35;14.98;;;7.22;;
7745;SDS011;3917;42.748;23.278;2022-08-20T02:49:03;23.10;;;8.10;;
7745;SDS011;3917;42.748;23.278;2022-08-20T02:51:30;19.25;;;7.82;;
7745;SDS011;3917;42.748;23.278;2022-08-20T02:53:57;18.08;;;7.38;;
7745;SDS011;3917;42.748;23.278;2022-08-20T02:56:25;23.98;;;8.77;;
7745;SDS011;3917;42.748;23.278;2022-08-20T02:58:51;23.90;;;8.45;;
7745;SDS011;3917;42.748;23.278;2022-08-20T03:01:18;18.17;;;8.80;;
7745;SDS011;3917;42.748;23.278;2022-08-20T03:03:45;11.13;;;9.02;;
7745;SDS011;3917;42.748;23.278;2022-08-20T03:06:13;11.18;;;8.52;;
7745;SDS011;3917;42.748;23.278;2022-08-20T03:08:41;18.65;;;9.35;;
7745;SDS011;3917;42.748;23.278;2022-08-20T03:11:08;10.43;;;8.88;;
7745;SDS011;3917;42.748;23.278;2022-08-20T03:13:35;11.82;;;9.20;;
7745;SDS011;3917;42.748;23.278;2022-08-20T03:16:02;14.50;;;9.75;;
7745;SDS011;3917;42.748;23.278;2022-08-20T03:18:32;19.13;;;9.02;;
7745;SDS011;3917;42.748;23.278;2022-08-20T03:21:03;16.45;;;7.50;;
7745;SDS011;3917;42.748;23.278;2022-08-20T03:23:33;14.60;;;8.30;;
7745;SDS011;3917;42.748;23.278;2022-08-20T03:26:02;11.98;;;8.30;;
7745;SDS011;3917;42.748;23.278;2022-08-20T03:28:29;17.10;;;9.10;;
7745;SDS011;3917;42.748;23.278;2022-08-20T03:30:56;18.20;;;9.15;;
7745;SDS011;3917;42.748;23.278;2022-08-20T03:33:24;12.23;;;9.13;;
7745;SDS011;3917;42.748;23.278;2022-08-20T03:35:51;16.75;;;9.35;;
7745;SDS011;3917;42.748;23.278;2022-08-20T03:38:20;18.83;;;8.90;;
7745;SDS011;3917;42.748;23.278;2022-08-20T03:40:50;14.68;;;9.60;;
7745;SDS011;3917;42.748;23.278;2022-08-20T03:43:17;13.70;;;9.80;;
7745;SDS011;3917;42.748;23.278;2022-08-20T03:45:45;12.10;;;10.10;;
7745;SDS011;3917;42.748;23.278;2022-08-20T03:48:13;11.52;;;9.43;;
7745;SDS011;3917;42.748;23.278;2022-08-20T03:50:43;17.20;;;9.90;;
7745;SDS011;3917;42.748;23.278;2022-08-20T03:53:11;20.52;;;11.07;;
7745;SDS011;3917;42.748;23.278;2022-08-20T03:55:41;19.92;;;10.30;;
7745;SDS011;3917;42.748;23.278;2022-08-20T03:58:12;19.08;;;10.77;;
7745;SDS011;3917;42.748;23.278;2022-08-20T04:00:42;16.70;;;10.02;;
7745;SDS011;3917;42.748;23.278;2022-08-20T04:03:11;14.30;;;10.23;;
7745;SDS011;3917;42.748;23.278;2022-08-20T04:05:38;15.68;;;10.07;;
7745;SDS011;3917;42.748;23.278;2022-08-20T04:08:06;15.82;;;10.23;;
7745;SDS011;3917;42.748;23.278;2022-08-20T04:10:34;12.43;;;9.93;;
7745;SDS011;3917;42.748;23.278;2022-08-20T04:13:02;22.33;;;9.85;;
7745;SDS011;3917;42.748;23.278;2022-08-20T04:15:30;11.38;;;9.10;;
7745;SDS011;3917;42.748;23.278;2022-08-20T04:17:58;16.30;;;9.57;;
7745;SDS011;3917;42.748;23.278;2022-08-20T04:20:25;13.43;;;9.13;;
7745;SDS011;3917;42.748;23.278;2022-08-20T04:22:53;15.02;;;9.65;;
7745;SDS011;3917;42.748;23.278;2022-08-20T04:25:21;12.93;;;9.73;;
7745;SDS011;3917;42.748;23.278;2022-08-20T04:27:48;12.68;;;8.82;;
7745;SDS011;3917;42.748;23.278;2022-08-20T04:30:16;15.80;;;9.52;;
7745;SDS011;3917;42.748;23.278;2022-08-20T04:32:46;12.48;;;8.55;;
7745;SDS011;3917;42.748;23.278;2022-08-20T04:35:14;14.68;;;9.07;;
7745;SDS011;3917;42.748;23.278;2022-08-20T04:37:42;15.85;;;9.32;;
7745;SDS011;3917;42.748;23.278;2022-08-20T04:40:11;19.30;;;9.32;;
7745;SDS011;3917;42.748;23.278;2022-08-20T04:42:56;26.55;;;10.65;;
7745;SDS011;3917;42.748;23.278;2022-08-20T04:45:23;10.55;;;8.68;;
7745;SDS011;3917;42.748;23.278;2022-08-20T04:47:52;10.73;;;8.30;;
7745;SDS011;3917;42.748;23.278;2022-08-20T04:50:19;16.75;;;8.45;;
7745;SDS011;3917;42.748;23.278;2022-08-20T04:52:46;10.93;;;8.32;;
7745;SDS011;3917;42.748;23.278;2022-08-20T04:55:14;16.50;;;8.73;;
7745;SDS011;3917;42.748;23.278;2022-08-20T04:57:43;11.10;;;9.15;;
7745;SDS011;3917;42.748;23.278;2022-08-20T05:00:11;15.77;;;9.52;;
7745;SDS011;3917;42.748;23.278;2022-08-20T05:02:40;14.80;;;8.85;;
7745;SDS011;3917;42.748;23.278;2022-08-20T05:05:09;10.93;;;9.65;;
7745;SDS011;3917;42.748;23.278;2022-08-20T05:07:37;11.63;;;9.80;;
7745;SDS011;3917;42.748;23.278;2022-08-20T05:10:05;16.38;;;9.35;;
7745;SDS011;3917;42.748;23.278;2022-08-20T05:12:34;11.63;;;8.30;;
7745;SDS011;3917;42.748;23.278;2022-08-20T05:15:00;16.70;;;8.27;;
7745;SDS011;3917;42.748;23.278;2022-08-20T05:17:28;12.70;;;8.40;;
7745;SDS011;3917;42.748;23.278;2022-08-20T05:19:55;12.10;;;8.02;;
7745;SDS011;3917;42.748;23.278;2022-08-20T05:22:24;9.60;;;8.65;;
7745;SDS011;3917;42.748;23.278;2022-08-20T05:24:52;17.75;;;7.90;;
7745;SDS011;3917;42.748;23.278;2022-08-20T05:27:20;9.98;;;7.72;;
7745;SDS011;3917;42.748;23.278;2022-08-20T05:29:51;16.20;;;7.85;;
7745;SDS011;3917;42.748;23.278;2022-08-20T05:32:19;17.70;;;7.38;;
7745;SDS011;3917;42.748;23.278;2022-08-20T05:34:45;12.18;;;7.80;;
7745;SDS011;3917;42.748;23.278;2022-08-20T05:37:13;12.60;;;7.35;;
7745;SDS011;3917;42.748;23.278;2022-08-20T05:39:43;12.15;;;7.47;;
7745;SDS011;3917;42.748;23.278;2022-08-20T05:42:10;11.60;;;7.70;;
7745;SDS011;3917;42.748;23.278;2022-08-20T05:44:36;11.32;;;7.65;;
7745;SDS011;3917;42.748;23.278;2022-08-20T05:47:04;13.50;;;7.00;;
7745;SDS011;3917;42.748;23.278;2022-08-20T05:49:31;20.10;;;7.43;;
7745;SDS011;3917;42.748;23.278;2022-08-20T05:51:59;10.00;;;7.10;;
7745;SDS011;3917;42.748;23.278;2022-08-20T05:54:25;15.00;;;6.95;;
7745;SDS011;3917;42.748;23.278;2022-08-20T05:56:54;20.40;;;6.90;;
7745;SDS011;3917;42.748;23.278;2022-08-20T05:59:21;9.63;;;6.45;;
7745;SDS011;3917;42.748;23.278;2022-08-20T06:01:49;12.32;;;6.82;;
7745;SDS011;3917;42.748;23.278;2022-08-20T06:04:16;12.75;;;6.68;;
7745;SDS011;3917;42.748;23.278;2022-08-20T06:06:55;15.45;;;6.85;;
7745;SDS011;3917;42.748;23.278;2022-08-20T06:09:26;12.05;;;7.10;;
7745;SDS011;3917;42.748;23.278;2022-08-20T06:11:55;10.02;;;6.95;;
7745;SDS011;3917;42.748;23.278;2022-08-20T06:14:23;11.85;;;7.20;;
7745;SDS011;3917;42.748;23.278;2022-08-20T06:16:50;13.85;;;6.97;;
7745;SDS011;3917;42.748;23.278;2022-08-20T06:19:17;14.85;;;6.93;;
7745;SDS011;3917;42.748;23.278;2022-08-20T06:21:44;15.60;;;7.38;;
7745;SDS011;3917;42.748;23.278;2022-08-20T06:24:11;11.73;;;7.28;;
7745;SDS011;3917;42.748;23.278;2022-08-20T06:26:37;10.95;;;7.60;;
7745;SDS011;3917;42.748;23.278;2022-08-20T06:29:08;11.20;;;6.82;;
7745;SDS011;3917;42.748;23.278;2022-08-20T06:31:38;15.88;;;7.68;;
7745;SDS011;3917;42.748;23.278;2022-08-20T06:34:05;8.63;;;6.70;;
7745;SDS011;3917;42.748;23.278;2022-08-20T06:36:32;17.05;;;6.85;;
7745;SDS011;3917;42.748;23.278;2022-08-20T06:38:59;14.68;;;7.22;;
7745;SDS011;3917;42.748;23.278;2022-08-20T06:41:26;18.02;;;7.70;;
7745;SDS011;3917;42.748;23.278;2022-08-20T06:43:53;12.63;;;7.20;;
7745;SDS011;3917;42.748;23.278;2022-08-20T06:46:21;14.23;;;6.18;;
7745;SDS011;3917;42.748;23.278;2022-08-20T06:48:49;15.65;;;6.38;;
7745;SDS011;3917;42.748;23.278;2022-08-20T06:51:16;17.02;;;6.28;;
7745;SDS011;3917;42.748;23.278;2022-08-20T06:53:44;18.88;;;6.65;;
7745;SDS011;3917;42.748;23.278;2022-08-20T06:56:11;15.88;;;6.25;;
7745;SDS011;3917;42.748;23.278;2022-08-20T06:58:37;17.15;;;6.68;;
7745;SDS011;3917;42.748;23.278;2022-08-20T07:01:05;13.98;;;6.45;;
7745;SDS011;3917;42.748;23.278;2022-08-20T07:03:33;15.38;;;6.65;;
7745;SDS011;3917;42.748;23.278;2022-08-20T07:06:02;18.13;;;6.90;;
7745;SDS011;3917;42.748;23.278;2022-08-20T07:08:29;15.77;;;6.70;;
7745;SDS011;3917;42.748;23.278;2022-08-20T07:10:56;17.35;;;6.68;;
7745;SDS011;3917;42.748;23.278;2022-08-20T07:13:23;13.82;;;6.43;;
7745;SDS011;3917;42.748;23.278;2022-08-20T07:15:50;10.93;;;6.00;;
7745;SDS011;3917;42.748;23.278;2022-08-20T07:18:17;13.13;;;6.20;;
7745;SDS011;3917;42.748;23.278;2022-08-20T07:20:45;15.40;;;6.55;;
7745;SDS011;3917;42.748;23.278;2022-08-20T07:23:12;17.35;;;6.40;;
7745;SDS011;3917;42.748;23.278;2022-08-20T07:25:39;20.88;;;6.35;;
7745;SDS011;3917;42.748;23.278;2022-08-20T07:28:10;17.13;;;6.00;;
7745;SDS011;3917;42.748;23.278;2022-08-20T07:30:39;18.67;;;5.93;;
7745;SDS011;3917;42.748;23.278;2022-08-20T07:33:24;14.50;;;5.68;;
7745;SDS011;3917;42.748;23.278;2022-08-20T07:35:53;9.35;;;5.38;;
7745;SDS011;3917;42.748;23.278;2022-08-20T07:38:21;11.10;;;5.40;;
7745;SDS011;3917;42.748;23.278;2022-08-20T07:40:49;19.45;;;6.03;;
7745;SDS011;3917;42.748;23.278;2022-08-20T07:43:17;8.07;;;5.75;;
7745;SDS011;3917;42.748;23.278;2022-08-20T07:45:46;7.90;;;5.68;;
7745;SDS011;3917;42.748;23.278;2022-08-20T07:48:13;14.40;;;5.80;;
7745;SDS011;3917;42.748;23.278;2022-08-20T07:50:40;6.15;;;5.32;;
7745;SDS011;3917;42.748;23.278;2022-08-20T07:53:08;10.93;;;5.80;;
7745;SDS011;3917;42.748;23.278;2022-08-20T07:55:36;10.60;;;5.80;;
7745;SDS011;3917;42.748;23.278;2022-08-20T07:58:06;10.02;;;7.05;;
7745;SDS011;3917;42.748;23.278;2022-08-20T08:00:35;11.38;;;5.38;;
7745;SDS011;3917;42.748;23.278;2022-08-20T08:03:03;15.23;;;6.35;;
7745;SDS011;3917;42.748;23.278;2022-08-20T08:05:30;10.52;;;6.03;;
7745;SDS011;3917;42.748;23.278;2022-08-20T08:07:57;26.23;;;6.70;;
7745;SDS011;3917;42.748;23.278;2022-08-20T08:10:26;6.25;;;5.65;;
7745;SDS011;3917;42.748;23.278;2022-08-20T08:12:54;11.13;;;5.75;;
7745;SDS011;3917;42.748;23.278;2022-08-20T08:15:25;10.52;;;5.35;;
7745;SDS011;3917;42.748;23.278;2022-08-20T08:17:57;10.52;;;5.50;;
7745;SDS011;3917;42.748;23.278;2022-08-20T08:20:27;9.02;;;5.50;;
7745;SDS011;3917;42.748;23.278;2022-08-20T08:22:54;7.68;;;5.43;;
7745;SDS011;3917;42.748;23.278;2022-08-20T08:25:21;11.73;;;5.75;;
7745;SDS011;3917;42.748;23.278;2022-08-20T08:27:50;10.15;;;5.65;;
7745;SDS011;3917;42.748;23.278;2022-08-20T08:30:16;8.23;;;5.35;;
7745;SDS011;3917;42.748;23.278;2022-08-20T08:32:43;9.43;;;5.47;;
7745;SDS011;3917;42.748;23.278;2022-08-20T08:35:28;24.33;;;6.88;;
7745;SDS011;3917;42.748;23.278;2022-08-20T08:37:56;12.73;;;6.15;;
7745;SDS011;3917;42.748;23.278;2022-08-20T08:40:27;8.68;;;5.85;;
7745;SDS011;3917;42.748;23.278;2022-08-20T08:42:57;11.05;;;5.70;;
7745;SDS011;3917;42.748;23.278;2022-08-20T08:45:30;10.75;;;5.65;;
7745;SDS011;3917;42.748;23.278;2022-08-20T08:48:08;7.00;;;5.30;;
7745;SDS011;3917;42.748;23.278;2022-08-20T08:50:35;9.40;;;6.00;;
7745;SDS011;3917;42.748;23.278;2022-08-20T08:53:03;8.65;;;5.65;;
7745;SDS011;3917;42.748;23.278;2022-08-20T08:55:31;14.30;;;5.80;;
7745;SDS011;3917;42.748;23.278;2022-08-20T08:58:00;11.75;;;5.20;;
7745;SDS011;3917;42.748;23.278;2022-08-20T09:00:27;12.20;;;5.43;;
7745;SDS011;3917;42.748;23.278;2022-08-20T09:02:56;9.35;;;6.03;;
7745;SDS011;3917;42.748;23.278;2022-08-20T09:05:29;9.50;;;5.00;;
7745;SDS011;3917;42.748;23.278;2022-08-20T09:08:02;7.65;;;5.00;;
7745;SDS011;3917;42.748;23.278;2022-08-20T09:10:32;10.18;;;5.18;;
7745;SDS011;3917;42.748;23.278;2022-08-20T09:13:00;7.35;;;5.00;;
7745;SDS011;3917;42.748;23.278;2022-08-20T09:15:27;6.68;;;5.00;;
7745;SDS011;3917;42.748;23.278;2022-08-20T09:17:54;10.00;;;5.82;;
7745;SDS011;3917;42.748;23.278;2022-08-20T09:20:21;11.00;;;4.93;;
7745;SDS011;3917;42.748;23.278;2022-08-20T09:22:48;5.10;;;4.70;;
7745;SDS011;3917;42.748;23.278;2022-08-20T09:25:15;10.45;;;5.40;;
7745;SDS011;3917;42.748;23.278;2022-08-20T09:27:42;8.43;;;5.05;;
7745;SDS011;3917;42.748;23.278;2022-08-20T09:30:11;12.63;;;5.13;;
7745;SDS011;3917;42.748;23.278;2022-08-20T09:32:39;10.25;;;5.68;;
7745;SDS011;3917;42.748;23.278;2022-08-20T09:35:06;8.32;;;5.28;;
7745;SDS011;3917;42.748;23.278;2022-08-20T09:37:34;6.50;;;4.90;;
7745;SDS011;3917;42.748;23.278;2022-08-20T09:40:01;10.80;;;5.63;;
7745;SDS011;3917;42.748;23.278;2022-08-20T09:42:29;8.45;;;5.13;;
7745;SDS011;3917;42.748;23.278;2022-08-20T09:44:57;7.68;;;5.25;;
7745;SDS011;3917;42.748;23.278;2022-08-20T09:47:27;11.48;;;5.45;;
7745;SDS011;3917;42.748;23.278;2022-08-20T09:49:54;11.50;;;5.45;;
7745;SDS011;3917;42.748;23.278;2022-08-20T09:52:21;11.35;;;5.70;;
7745;SDS011;3917;42.748;23.278;2022-08-20T09:54:50;6.07;;;4.70;;
7745;SDS011;3917;42.748;23.278;2022-08-20T09:57:20;25.70;;;5.40;;
7745;SDS011;3917;42.748;23.278;2022-08-20T09:59:49;10.18;;;5.65;;
7745;SDS011;3917;42.748;23.278;2022-08-20T10:02:21;12.20;;;5.93;;
7745;SDS011;3917;42.748;23.278;2022-08-20T10:04:49;7.57;;;5.63;;
7745;SDS011;3917;42.748;23.278;2022-08-20T10:07:16;6.63;;;4.90;;
7745;SDS011;3917;42.748;23.278;2022-08-20T10:09:43;6.43;;;4.93;;
7745;SDS011;3917;42.748;23.278;2022-08-20T10:12:10;7.43;;;5.07;;
7745;SDS011;3917;42.748;23.278;2022-08-20T10:14:36;8.02;;;5.32;;
7745;SDS011;3917;42.748;23.278;2022-08-20T10:17:03;13.48;;;5.05;;
7745;SDS011;3917;42.748;23.278;2022-08-20T10:19:30;7.57;;;4.70;;
7745;SDS011;3917;42.748;23.278;2022-08-20T10:21:59;5.18;;;4.78;;
7745;SDS011;3917;42.748;23.278;2022-08-20T10:24:26;7.75;;;4.80;;
7745;SDS011;3917;42.748;23.278;2022-08-20T10:26:54;5.53;;;5.03;;
7745;SDS011;3917;42.748;23.278;2022-08-20T10:29:22;6.78;;;4.53;;
7745;SDS011;3917;42.748;23.278;2022-08-20T10:31:50;8.52;;;5.45;;
7745;SDS011;3917;42.748;23.278;2022-08-20T10:34:17;6.63;;;4.78;;
7745;SDS011;3917;42.748;23.278;2022-08-20T10:36:44;13.30;;;5.22;;
7745;SDS011;3917;42.748;23.278;2022-08-20T10:39:13;28.35;;;6.15;;
7745;SDS011;3917;42.748;23.278;2022-08-20T10:41:40;6.50;;;5.72;;
7745;SDS011;3917;42.748;23.278;2022-08-20T10:44:07;10.80;;;6.10;;
7745;SDS011;3917;42.748;23.278;2022-08-20T10:46:34;7.57;;;5.68;;
7745;SDS011;3917;42.748;23.278;2022-08-20T10:49:01;8.02;;;5.55;;
7745;SDS011;3917;42.748;23.278;2022-08-20T10:51:28;13.75;;;5.90;;
7745;SDS011;3917;42.748;23.278;2022-08-20T10:53:55;8.57;;;5.13;;
7745;SDS011;3917;42.748;23.278;2022-08-20T10:56:23;7.85;;;5.47;;
7745;SDS011;3917;42.748;23.278;2022-08-20T10:58:50;33.83;;;7.05;;
7745;SDS011;3917;42.748;23.278;2022-08-20T11:01:17;8.05;;;5.78;;
7745;SDS011;3917;42.748;23.278;2022-08-20T11:03:43;10.93;;;5.57;;
7745;SDS011;3917;42.748;23.278;2022-08-20T11:06:10;14.15;;;6.68;;
7745;SDS011;3917;42.748;23.278;2022-08-20T11:08:37;16.48;;;5.93;;
7745;SDS011;3917;42.748;23.278;2022-08-20T11:11:04;8.18;;;6.07;;
7745;SDS011;3917;42.748;23.278;2022-08-20T11:13:33;11.50;;;5.75;;
7745;SDS011;3917;42.748;23.278;2022-08-20T11:16:00;10.60;;;6.10;;
7745;SDS011;3917;42.748;23.278;2022-08-20T11:18:28;13.20;;;5.68;;
7745;SDS011;3917;42.748;23.278;2022-08-20T11:20:55;7.60;;;5.65;;
7745;SDS011;3917;42.748;23.278;2022-08-20T11:23:22;10.13;;;5.40;;
7745;SDS011;3917;42.748;23.278;2022-08-20T11:25:49;12.00;;;5.80;;
7745;SDS011;3917;42.748;23.278;2022-08-20T11:28:16;11.30;;;5.25;;
7745;SDS011;3917;42.748;23.278;2022-08-20T11:30:45;8.05;;;5.60;;
7745;SDS011;3917;42.748;23.278;2022-08-20T11:33:14;10.68;;;5.57;;
7745;SDS011;3917;42.748;23.278;2022-08-20T11:35:41;8.50;;;5.55;;
7745;SDS011;3917;42.748;23.278;2022-08-20T11:38:07;9.27;;;5.70;;
7745;SDS011;3917;42.748;23.278;2022-08-20T11:40:34;22.42;;;7.35;;
7745;SDS011;3917;42.748;23.278;2022-08-20T11:43:01;14.10;;;6.40;;
7745;SDS011;3917;42.748;23.278;2022-08-20T11:45:28;9.80;;;6.03;;
7745;SDS011;3917;42.748;23.278;2022-08-20T11:47:56;10.43;;;5.78;;
7745;SDS011;3917;42.748;23.278;2022-08-20T11:50:23;8.45;;;5.00;;
7745;SDS011;3917;42.748;23.278;2022-08-20T11:52:50;5.90;;;5.40;;
7745;SDS011;3917;42.748;23.278;2022-08-20T11:55:20;9.13;;;5.70;;
7745;SDS011;3917;42.748;23.278;2022-08-20T11:57:47;8.60;;;6.15;;
7745;SDS011;3917;42.748;23.278;2022-08-20T12:00:15;17.48;;;6.60;;
7745;SDS011;3917;42.748;23.278;2022-08-20T12:02:44;9.00;;;6.82;;
7745;SDS011;3917;42.748;23.278;2022-08-20T12:05:12;10.30;;;6.40;;
7745;SDS011;3917;42.748;23.278;2022-08-20T12:07:39;6.47;;;5.93;;
7745;SDS011;3917;42.748;23.278;2022-08-20T12:10:06;13.38;;;5.45;;
7745;SDS011;3917;42.748;23.278;2022-08-20T12:12:34;24.35;;;6.25;;
7745;SDS011;3917;42.748;23.278;2022-08-20T12:15:03;13.55;;;6.13;;
7745;SDS011;3917;42.748;23.278;2022-08-20T12:17:31;6.80;;;5.80;;
7745;SDS011;3917;42.748;23.278;2022-08-20T12:19:59;6.20;;;5.10;;
7745;SDS011;3917;42.748;23.278;2022-08-20T12:22:30;11.05;;;5.97;;
7745;SDS011;3917;42.748;23.278;2022-08-20T12:24:56;11.38;;;6.07;;
7745;SDS011;3917;42.748;23.278;2022-08-20T12:27:24;10.85;;;5.90;;
7745;SDS011;3917;42.748;23.278;2022-08-20T12:29:53;43.97;;;8.45;;
7745;SDS011;3917;42.748;23.278;2022-08-20T12:32:22;9.18;;;6.32;;
7745;SDS011;3917;42.748;23.278;2022-08-20T12:34:50;13.32;;;6.60;;
7745;SDS011;3917;42.748;23.278;2022-08-20T12:37:19;13.60;;;5.95;;
7745;SDS011;3917;42.748;23.278;2022-08-20T12:39:51;13.85;;;6.55;;
7745;SDS011;3917;42.748;23.278;2022-08-20T12:42:19;13.15;;;6.90;;
7745;SDS011;3917;42.748;23.278;2022-08-20T12:44:47;18.13;;;7.68;;
7745;SDS011;3917;42.748;23.278;2022-08-20T12:47:14;12.05;;;7.28;;
7745;SDS011;3917;42.748;23.278;2022-08-20T12:49:43;16.13;;;7.93;;
7745;SDS011;3917;42.748;23.278;2022-08-20T12:52:13;8.73;;;7.82;;
7745;SDS011;3917;42.748;23.278;2022-08-20T12:54:41;13.20;;;7.82;;
7745;SDS011;3917;42.748;23.278;2022-08-20T12:57:13;14.77;;;8.65;;
7745;SDS011;3917;42.748;23.278;2022-08-20T12:59:41;16.08;;;9.05;;
7745;SDS011;3917;42.748;23.278;2022-08-20T13:02:07;11.23;;;9.18;;
7745;SDS011;3917;42.748;23.278;2022-08-20T13:04:34;9.98;;;9.00;;
7745;SDS011;3917;42.748;23.278;2022-08-20T13:07:01;10.18;;;8.85;;
7745;SDS011;3917;42.748;23.278;2022-08-20T13:09:29;9.85;;;8.70;;
7745;SDS011;3917;42.748;23.278;2022-08-20T13:11:56;10.48;;;8.63;;
7745;SDS011;3917;42.748;23.278;2022-08-20T13:14:25;17.33;;;9.18;;
7745;SDS011;3917;42.748;23.278;2022-08-20T13:16:55;12.10;;;9.23;;
7745;SDS011;3917;42.748;23.278;2022-08-20T13:19:23;18.02;;;9.75;;
7745;SDS011;3917;42.748;23.278;2022-08-20T13:21:50;18.77;;;10.65;;
7745;SDS011;3917;42.748;23.278;2022-08-20T13:24:17;16.60;;;10.57;;
7745;SDS011;3917;42.748;23.278;2022-08-20T13:26:44;16.75;;;10.20;;
7745;SDS011;3917;42.748;23.278;2022-08-20T13:29:11;14.80;;;9.60;;
7745;SDS011;3917;42.748;23.278;2022-08-20T13:31:39;13.90;;;9.40;;
7745;SDS011;3917;42.748;23.278;2022-08-20T13:34:06;12.25;;;9.30;;
7745;SDS011;3917;42.748;23.278;2022-08-20T13:36:33;18.75;;;10.77;;
7745;SDS011;3917;42.748;23.278;2022-08-20T13:39:01;11.38;;;9.52;;
7745;SDS011;3917;42.748;23.278;2022-08-20T13:41:28;21.60;;;8.48;;
7745;SDS011;3917;42.748;23.278;2022-08-20T13:43:55;14.23;;;8.23;;
7745;SDS011;3917;42.748;23.278;2022-08-20T13:46:22;20.20;;;8.55;;
7745;SDS011;3917;42.748;23.278;2022-08-20T13:48:50;18.40;;;8.70;;
7745;SDS011;3917;42.748;23.278;2022-08-20T13:51:17;15.80;;;8.13;;
7745;SDS011;3917;42.748;23.278;2022-08-20T13:53:44;20.70;;;9.20;;
7745;SDS011;3917;42.748;23.278;2022-08-20T13:56:10;16.17;;;9.13;;
7745;SDS011;3917;42.748;23.278;2022-08-20T13:58:37;14.40;;;8.55;;
7745;SDS011;3917;42.748;23.278;2022-08-20T14:01:04;23.02;;;9.95;;
7745;SDS011;3917;42.748;23.278;2022-08-20T14:03:31;20.40;;;10.70;;
7745;SDS011;3917;42.748;23.278;2022-08-20T14:06:00;24.13;;;12.25;;
7745;SDS011;3917;42.748;23.278;2022-08-20T14:08:27;31.60;;;14.70;;
7745;SDS011;3917;42.748;23.278;2022-08-20T14:10:54;29.30;;;15.73;;
7745;SDS011;3917;42.748;23.278;2022-08-20T14:13:23;23.48;;;14.30;;
7745;SDS011;3917;42.748;23.278;2022-08-20T14:15:51;17.92;;;13.05;;
7745;SDS011;3917;42.748;23.278;2022-08-20T14:18:18;27.00;;;10.95;;
7745;SDS011;3917;42.748;23.278;2022-08-20T14:20:45;30.85;;;13.18;;
7745;SDS011;3917;42.748;23.278;2022-08-20T14:23:14;29.85;;;14.90;;
7745;SDS011;3917;42.748;23.278;2022-08-20T14:25:43;22.02;;;12.23;;
7745;SDS011;3917;42.748;23.278;2022-08-20T14:28:12;23.75;;;13.40;;
7745;SDS011;3917;42.748;23.278;2022-08-20T14:30:40;17.77;;;10.07;;
7745;SDS011;3917;42.748;23.278;2022-08-20T14:33:07;22.60;;;10.48;;
7745;SDS011;3917;42.748;23.278;2022-08-20T14:35:34;22.17;;;8.90;;
7745;SDS011;3917;42.748;23.278;2022-08-20T14:38:02;16.27;;;8.07;;
7745;SDS011;3917;42.748;23.278;2022-08-20T14:40:30;12.88;;;8.07;;
7745;SDS011;3917;42.748;23.278;2022-08-20T14:42:57;20.02;;;10.23;;
7745;SDS011;3917;42.748;23.278;2022-08-20T14:45:24;20.08;;;8.38;;
7745;SDS011;3917;42.748;23.278;2022-08-20T14:47:52;17.75;;;9.35;;
7745;SDS011;3917;42.748;23.278;2022-08-20T14:50:22;21.95;;;9.20;;
7745;SDS011;3917;42.748;23.278;2022-08-20T14:52:51;19.15;;;7.38;;
7745;SDS011;3917;42.748;23.278;2022-08-20T14:55:19;20.25;;;8.43;;
7745;SDS011;3917;42.748;23.278;2022-08-20T14:57:49;16.27;;;9.05;;
7745;SDS011;3917;42.748;23.278;2022-08-20T15:00:17;14.57;;;7.43;;